Time;durP1;ratioP1;P1;durP2;ratioP2;P2;SDS_P1;SDS_P2;PMS_P1;PMS_P2;Temp;Humidity;BMP_temperature;BMP_pressure;BME280_temperature;BME280_humidity;BME280_pressure;Samples;Min_cycle;Max_cycle;Signal;HPM_P1;HPM_P2
2023/11/09 00:00:59;;;;;;;11.77;3.55;;;;;;;;;;4959375;28;20046;-84
2023/11/09 00:03:45;;;;;;;5.30;2.70;;;;;;;;;;4988543;28;20628;-84
2023/11/09 00:06:30;;;;;;;5.78;3.40;;;;;;;;;;4973745;28;20073;-84
2023/11/09 00:09:15;;;;;;;5.28;3.17;;;;;;;;;;4976667;28;20084;-85
2023/11/09 00:12:01;;;;;;;6.88;2.83;;;;;;;;;;4971527;28;20054;-83
2023/11/09 00:14:49;;;;;;;6.20;3.00;;;;;;;;;;4975333;28;20159;-83
2023/11/09 00:17:35;;;;;;;5.77;2.73;;;;;;;;;;4975677;28;20034;-83
2023/11/09 00:20:21;;;;;;;6.13;2.85;;;;;;;;;;4975802;28;20034;-84
2023/11/09 00:23:06;;;;;;;4.35;3.25;;;;;;;;;;4970657;28;20408;-84
2023/11/09 00:25:52;;;;;;;6.07;3.08;;;;;;;;;;4969918;28;20437;-85
2023/11/09 00:28:37;;;;;;;4.63;2.45;;;;;;;;;;4975286;28;20038;-83
2023/11/09 00:31:23;;;;;;;6.88;3.25;;;;;;;;;;4956902;28;20038;-84
2023/11/09 00:34:11;;;;;;;10.90;3.10;;;;;;;;;;4956174;28;20037;-83
2023/11/09 00:36:57;;;;;;;5.68;3.00;;;;;;;;;;4978372;28;20468;-83
2023/11/09 00:39:45;;;;;;;6.85;2.60;;;;;;;;;;4975750;28;20039;-84
2023/11/09 00:42:30;;;;;;;10.23;2.70;;;;;;;;;;4976308;28;20030;-84
2023/11/09 00:45:15;;;;;;;6.07;2.92;;;;;;;;;;4975454;28;20041;-84
2023/11/09 00:48:02;;;;;;;5.70;2.85;;;;;;;;;;4973453;28;20038;-85
2023/11/09 00:50:48;;;;;;;5.90;2.42;;;;;;;;;;4974319;28;20026;-84
2023/11/09 00:53:33;;;;;;;7.60;2.50;;;;;;;;;;4973143;28;20316;-85
2023/11/09 00:56:18;;;;;;;4.40;2.65;;;;;;;;;;4974142;28;20034;-86
2023/11/09 00:59:04;;;;;;;7.05;2.20;;;;;;;;;;4975109;28;20088;-84
2023/11/09 01:01:49;;;;;;;6.30;2.75;;;;;;;;;;4972218;28;20062;-84
2023/11/09 01:04:35;;;;;;;5.88;2.17;;;;;;;;;;4960476;28;20062;-84
2023/11/09 01:07:20;;;;;;;5.10;2.50;;;;;;;;;;4970604;28;20082;-84
2023/11/09 01:10:05;;;;;;;4.90;2.47;;;;;;;;;;4972648;28;20033;-85
2023/11/09 01:12:51;;;;;;;4.70;2.40;;;;;;;;;;4958394;28;20027;-85
2023/11/09 01:15:36;;;;;;;3.42;2.05;;;;;;;;;;4975676;28;20465;-84
2023/11/09 01:18:21;;;;;;;5.03;2.47;;;;;;;;;;4975565;28;20030;-85
2023/11/09 01:21:07;;;;;;;4.75;2.90;;;;;;;;;;4973117;28;20069;-84
2023/11/09 01:23:52;;;;;;;4.85;2.60;;;;;;;;;;4971431;28;20041;-83
2023/11/09 01:26:37;;;;;;;4.22;2.15;;;;;;;;;;4966409;28;20050;-87
2023/11/09 01:29:23;;;;;;;4.22;2.25;;;;;;;;;;4975489;28;20117;-88
2023/11/09 01:32:08;;;;;;;4.20;2.33;;;;;;;;;;4974251;28;20030;-87
2023/11/09 01:34:53;;;;;;;3.75;2.30;;;;;;;;;;4955341;28;20093;-83
2023/11/09 01:37:38;;;;;;;6.13;2.75;;;;;;;;;;4985017;28;20084;-83
2023/11/09 01:40:24;;;;;;;3.03;2.33;;;;;;;;;;4975498;28;20293;-84
2023/11/09 01:43:12;;;;;;;5.43;2.13;;;;;;;;;;4972843;28;20113;-83
2023/11/09 01:45:57;;;;;;;2.95;1.85;;;;;;;;;;4975812;28;20265;-84
2023/11/09 01:48:43;;;;;;;5.72;2.58;;;;;;;;;;4970408;28;20046;-84
2023/11/09 01:51:28;;;;;;;3.80;2.22;;;;;;;;;;4971116;28;20030;-84
2023/11/09 01:54:15;;;;;;;6.63;2.80;;;;;;;;;;4966946;28;20046;-85
2023/11/09 01:57:00;;;;;;;5.50;2.85;;;;;;;;;;4962191;28;20022;-84
2023/11/09 01:59:46;;;;;;;6.97;2.35;;;;;;;;;;4974383;28;20501;-84
2023/11/09 02:02:31;;;;;;;4.70;2.50;;;;;;;;;;4975271;28;20507;-86
2023/11/09 02:05:17;;;;;;;4.50;2.35;;;;;;;;;;4961644;28;20038;-85
2023/11/09 02:08:02;;;;;;;5.57;2.33;;;;;;;;;;4973994;28;20053;-84
2023/11/09 02:10:47;;;;;;;5.68;2.15;;;;;;;;;;4972915;28;20048;-84
2023/11/09 02:13:35;;;;;;;4.70;2.22;;;;;;;;;;4964836;28;20041;-84
2023/11/09 02:16:21;;;;;;;6.82;2.70;;;;;;;;;;4974060;28;20030;-84
2023/11/09 02:19:07;;;;;;;4.57;2.83;;;;;;;;;;4974114;28;20022;-85
2023/11/09 02:21:52;;;;;;;4.43;2.33;;;;;;;;;;4974465;28;20022;-84
2023/11/09 02:24:38;;;;;;;5.82;2.03;;;;;;;;;;4972955;28;20026;-83
2023/11/09 02:27:23;;;;;;;5.90;2.00;;;;;;;;;;4972673;28;20027;-84
2023/11/09 02:30:09;;;;;;;6.72;2.25;;;;;;;;;;4974541;28;20481;-84
2023/11/09 02:32:54;;;;;;;5.47;2.35;;;;;;;;;;4971686;28;20113;-85
2023/11/09 02:35:40;;;;;;;4.47;2.10;;;;;;;;;;4977016;28;20084;-85
2023/11/09 02:38:25;;;;;;;3.08;1.75;;;;;;;;;;4975644;28;20048;-85
2023/11/09 02:41:11;;;;;;;3.90;1.90;;;;;;;;;;4979376;28;20095;-86
2023/11/09 02:43:57;;;;;;;4.88;3.08;;;;;;;;;;4984116;28;20061;-85
2023/11/09 02:46:42;;;;;;;7.28;2.20;;;;;;;;;;4976051;28;20038;-85
2023/11/09 02:49:27;;;;;;;6.32;2.40;;;;;;;;;;4976305;28;20026;-84
2023/11/09 02:52:12;;;;;;;7.38;2.28;;;;;;;;;;4968395;28;20073;-86
2023/11/09 02:54:59;;;;;;;3.45;2.30;;;;;;;;;;4975949;28;20066;-85
2023/11/09 02:57:44;;;;;;;2.60;1.80;;;;;;;;;;4976014;28;20034;-85
2023/11/09 03:00:30;;;;;;;3.08;2.05;;;;;;;;;;4976892;28;20042;-85
2023/11/09 03:03:15;;;;;;;3.90;1.88;;;;;;;;;;4985238;28;20025;-85
2023/11/09 03:06:00;;;;;;;2.97;1.90;;;;;;;;;;4976690;28;20027;-83
2023/11/09 03:08:46;;;;;;;4.88;1.75;;;;;;;;;;4996929;28;20034;-83
2023/11/09 03:11:31;;;;;;;3.50;2.00;;;;;;;;;;4974847;28;20042;-83
2023/11/09 03:14:16;;;;;;;5.45;1.65;;;;;;;;;;4973839;28;20022;-83
2023/11/09 03:17:03;;;;;;;7.57;2.28;;;;;;;;;;4966889;28;20057;-85
2023/11/09 03:19:48;;;;;;;3.88;1.55;;;;;;;;;;4957041;28;20019;-84
2023/11/09 03:22:33;;;;;;;3.25;1.73;;;;;;;;;;4961055;28;20022;-83
2023/11/09 03:25:19;;;;;;;5.10;1.60;;;;;;;;;;4977777;28;20022;-83
2023/11/09 03:28:05;;;;;;;3.33;1.73;;;;;;;;;;4971782;28;20314;-84
2023/11/09 03:30:50;;;;;;;4.53;1.63;;;;;;;;;;4976419;28;20468;-84
2023/11/09 03:33:36;;;;;;;3.92;2.00;;;;;;;;;;4975496;28;20030;-84
2023/11/09 03:36:21;;;;;;;5.82;2.63;;;;;;;;;;4976443;28;20465;-84
2023/11/09 03:39:06;;;;;;;2.58;1.88;;;;;;;;;;4975487;28;20384;-84
2023/11/09 03:41:51;;;;;;;3.38;1.85;;;;;;;;;;4989722;28;20022;-86
2023/11/09 03:44:40;;;;;;;2.97;1.60;;;;;;;;;;4982698;28;20030;-86
2023/11/09 03:47:25;;;;;;;6.25;2.78;;;;;;;;;;4963195;28;20382;-84
2023/11/09 03:50:11;;;;;;;3.55;2.00;;;;;;;;;;4978504;28;20031;-84
2023/11/09 03:52:59;;;;;;;3.63;1.63;;;;;;;;;;4979967;28;20018;-87
2023/11/09 03:56:46;;;;;;;;;;;;;;;;;;;;;
2023/11/09 03:58:55;;;;;;;3.08;1.58;;;;;;;;;;4987283;28;20085;-85
2023/11/09 04:01:40;;;;;;;3.20;1.77;;;;;;;;;;4978700;28;20168;-87
2023/11/09 04:04:25;;;;;;;4.15;1.63;;;;;;;;;;4991907;28;20045;-87
2023/11/09 04:07:10;;;;;;;2.42;1.98;;;;;;;;;;4979338;28;20670;-89
2023/11/09 04:09:56;;;;;;;2.95;1.63;;;;;;;;;;4991213;28;20070;-87
2023/11/09 04:12:42;;;;;;;3.10;1.75;;;;;;;;;;4986763;28;20025;-83
2023/11/09 04:15:27;;;;;;;4.55;1.95;;;;;;;;;;4976017;28;20093;-85
2023/11/09 04:18:12;;;;;;;3.95;1.50;;;;;;;;;;4961269;28;20037;-85
2023/11/09 04:20:57;;;;;;;3.35;1.77;;;;;;;;;;4975987;28;20030;-84
2023/11/09 04:23:43;;;;;;;2.58;1.63;;;;;;;;;;4974601;28;20399;-85
2023/11/09 04:26:32;;;;;;;5.57;2.03;;;;;;;;;;4974473;28;20050;-84
2023/11/09 04:29:17;;;;;;;2.53;1.52;;;;;;;;;;4974634;28;20081;-85
2023/11/09 04:32:03;;;;;;;2.97;1.67;;;;;;;;;;4972149;28;20018;-85
2023/11/09 04:34:49;;;;;;;5.32;1.80;;;;;;;;;;4962218;28;20122;-84
2023/11/09 04:37:37;;;;;;;3.53;1.48;;;;;;;;;;4977341;28;20713;-84
2023/11/09 04:40:25;;;;;;;5.40;1.75;;;;;;;;;;4988700;28;20030;-85
2023/11/09 04:43:11;;;;;;;2.83;1.63;;;;;;;;;;4983930;28;20034;-85
2023/11/09 04:46:05;;;;;;;4.30;2.33;;;;;;;;;;4964580;28;20034;-85
2023/11/09 04:48:55;;;;;;;2.75;1.70;;;;;;;;;;4975788;28;20385;-84
2023/11/09 04:51:45;;;;;;;2.92;1.80;;;;;;;;;;4975217;28;20062;-84
2023/11/09 04:54:44;;;;;;;4.88;2.17;;;;;;;;;;4971779;28;20061;-85
2023/11/09 05:06:55;;;;;;;4.20;2.08;;;;;;;;;;4973009;28;20030;-84
2023/11/09 05:09:40;;;;;;;5.50;2.03;;;;;;;;;;4973955;28;20037;-84
2023/11/09 05:12:26;;;;;;;4.22;2.00;;;;;;;;;;4977499;28;20115;-86
2023/11/09 05:15:11;;;;;;;3.65;1.90;;;;;;;;;;4983176;28;20078;-86
2023/11/09 05:17:56;;;;;;;4.80;2.17;;;;;;;;;;4994353;28;20026;-85
2023/11/09 05:20:58;;;;;;;9.50;2.80;;;;;;;;;;4992942;28;20057;-87
2023/11/09 05:23:45;;;;;;;3.08;1.65;;;;;;;;;;4994805;28;20050;-84
2023/11/09 05:26:32;;;;;;;4.05;2.10;;;;;;;;;;4996988;28;20320;-86
2023/11/09 05:29:18;;;;;;;4.78;2.25;;;;;;;;;;4992158;28;20117;-86
2023/11/09 05:32:06;;;;;;;6.90;2.28;;;;;;;;;;4977390;28;20057;-86
2023/11/09 05:34:51;;;;;;;4.97;2.40;;;;;;;;;;4974825;28;20124;-86
2023/11/09 05:37:37;;;;;;;2.85;1.95;;;;;;;;;;4970364;28;20039;-85
2023/11/09 05:40:22;;;;;;;4.38;2.35;;;;;;;;;;4972852;28;20023;-84
2023/11/09 05:43:09;;;;;;;9.50;2.83;;;;;;;;;;4973625;28;20233;-83
2023/11/09 05:45:55;;;;;;;3.40;1.90;;;;;;;;;;4972720;28;20037;-82
2023/11/09 05:48:40;;;;;;;4.93;2.22;;;;;;;;;;4975009;28;20028;-86
2023/11/09 05:51:25;;;;;;;5.60;2.58;;;;;;;;;;4977071;28;20558;-87
2023/11/09 05:54:11;;;;;;;9.65;3.80;;;;;;;;;;4972830;28;20041;-86
2023/11/09 05:56:57;;;;;;;7.45;2.47;;;;;;;;;;4969946;28;20041;-85
2023/11/09 05:59:42;;;;;;;7.65;2.30;;;;;;;;;;4958217;28;20441;-85
2023/11/09 06:02:28;;;;;;;4.85;2.42;;;;;;;;;;4965411;28;20030;-84
2023/11/09 06:05:14;;;;;;;3.58;2.13;;;;;;;;;;4964871;28;20038;-83
2023/11/09 06:08:00;;;;;;;5.05;2.42;;;;;;;;;;4963617;28;20010;-81
2023/11/09 06:10:47;;;;;;;5.70;2.70;;;;;;;;;;4957144;28;20137;-81
2023/11/09 06:13:33;;;;;;;4.18;2.75;;;;;;;;;;4974802;28;20126;-82
2023/11/09 06:16:18;;;;;;;5.93;2.80;;;;;;;;;;4971949;28;20030;-82
2023/11/09 06:19:03;;;;;;;6.05;2.55;;;;;;;;;;4964018;28;20030;-83
2023/11/09 06:21:51;;;;;;;6.65;2.80;;;;;;;;;;4970584;28;20303;-82
2023/11/09 06:24:37;;;;;;;5.95;2.70;;;;;;;;;;4982483;28;20393;-80
2023/11/09 06:27:22;;;;;;;4.85;2.55;;;;;;;;;;4969328;28;20030;-81
2023/11/09 06:30:08;;;;;;;9.75;2.45;;;;;;;;;;4966833;28;20026;-87
2023/11/09 06:32:53;;;;;;;3.90;2.15;;;;;;;;;;4972671;28;20069;-84
2023/11/09 06:35:40;;;;;;;6.57;1.95;;;;;;;;;;4970911;28;20049;-84
2023/11/09 06:38:27;;;;;;;6.10;2.50;;;;;;;;;;4967886;28;20486;-85
2023/11/09 06:41:13;;;;;;;6.88;2.47;;;;;;;;;;4981584;28;20030;-84
2023/11/09 06:43:58;;;;;;;7.47;3.03;;;;;;;;;;4986533;28;20042;-84
2023/11/09 06:46:44;;;;;;;5.65;2.35;;;;;;;;;;4953797;28;20031;-83
2023/11/09 06:49:29;;;;;;;7.15;2.58;;;;;;;;;;4960443;28;20038;-82
2023/11/09 06:52:15;;;;;;;4.57;2.50;;;;;;;;;;4976819;28;20038;-83
2023/11/09 06:55:00;;;;;;;6.13;2.45;;;;;;;;;;4975879;28;20034;-82
2023/11/09 06:57:45;;;;;;;5.63;2.55;;;;;;;;;;4973958;28;20027;-82
2023/11/09 07:00:31;;;;;;;5.22;2.95;;;;;;;;;;4972749;28;20100;-83
2023/11/09 07:03:16;;;;;;;5.28;2.65;;;;;;;;;;4984909;28;20037;-84
2023/11/09 07:06:01;;;;;;;6.30;2.67;;;;;;;;;;4977051;28;20022;-82
2023/11/09 07:08:46;;;;;;;5.55;2.97;;;;;;;;;;4976543;28;20018;-83
2023/11/09 07:11:32;;;;;;;6.25;3.13;;;;;;;;;;4977602;28;20144;-82
2023/11/09 07:14:23;;;;;;;5.47;3.15;;;;;;;;;;4976064;28;20023;-82
2023/11/09 07:17:08;;;;;;;7.55;3.50;;;;;;;;;;4975468;28;20369;-83
2023/11/09 07:19:53;;;;;;;6.00;2.72;;;;;;;;;;4977490;28;20719;-82
2023/11/09 07:22:56;;;;;;;9.50;3.13;;;;;;;;;;4988295;28;20118;-83
2023/11/09 07:25:41;;;;;;;7.35;3.00;;;;;;;;;;4974794;28;20129;-83
2023/11/09 07:28:29;;;;;;;8.68;2.80;;;;;;;;;;4975388;28;20101;-84
2023/11/09 07:31:14;;;;;;;6.10;2.78;;;;;;;;;;4976474;28;20096;-84
2023/11/09 07:33:59;;;;;;;11.70;3.75;;;;;;;;;;4975738;28;20022;-84
2023/11/09 07:36:45;;;;;;;6.57;2.58;;;;;;;;;;4976489;28;20041;-84
2023/11/09 07:39:30;;;;;;;8.15;3.60;;;;;;;;;;4975725;28;20133;-82
2023/11/09 07:42:15;;;;;;;7.72;2.63;;;;;;;;;;4975407;28;20326;-84
2023/11/09 07:45:01;;;;;;;6.38;2.60;;;;;;;;;;4975220;28;20062;-84
2023/11/09 07:47:46;;;;;;;5.68;2.60;;;;;;;;;;4975934;28;20033;-82
2023/11/09 07:50:33;;;;;;;6.00;2.58;;;;;;;;;;4975109;28;20033;-85
2023/11/09 07:53:18;;;;;;;5.20;2.30;;;;;;;;;;4972085;28;20065;-84
2023/11/09 07:56:03;;;;;;;4.10;2.17;;;;;;;;;;4960647;28;20034;-84
2023/11/09 07:58:49;;;;;;;6.80;1.85;;;;;;;;;;4969663;28;20041;-83
2023/11/09 08:01:34;;;;;;;4.20;2.28;;;;;;;;;;4975426;28;20034;-84
2023/11/09 08:04:19;;;;;;;2.55;1.38;;;;;;;;;;4975133;28;20026;-84
2023/11/09 08:07:04;;;;;;;4.18;2.00;;;;;;;;;;4976073;28;20042;-84
2023/11/09 08:09:50;;;;;;;5.15;2.35;;;;;;;;;;4974291;28;20030;-84
2023/11/09 08:12:35;;;;;;;4.15;1.70;;;;;;;;;;4975537;28;20041;-83
2023/11/09 08:15:22;;;;;;;5.43;1.60;;;;;;;;;;4974569;28;20031;-83
2023/11/09 08:18:07;;;;;;;2.40;1.52;;;;;;;;;;4975693;28;20036;-84
2023/11/09 08:20:52;;;;;;;2.45;1.40;;;;;;;;;;4973470;28;20077;-84
2023/11/09 08:23:38;;;;;;;6.13;2.30;;;;;;;;;;4973978;28;20637;-83
2023/11/09 08:26:23;;;;;;;2.65;1.58;;;;;;;;;;4971731;28;20041;-84
2023/11/09 08:29:08;;;;;;;5.45;1.90;;;;;;;;;;4975464;28;20022;-84
2023/11/09 08:31:54;;;;;;;4.60;1.65;;;;;;;;;;4974592;28;20042;-84
2023/11/09 08:34:40;;;;;;;2.33;1.50;;;;;;;;;;4975611;28;20018;-84
2023/11/09 08:37:26;;;;;;;3.55;1.95;;;;;;;;;;4966242;28;20034;-84
2023/11/09 08:40:17;;;;;;;2.55;1.60;;;;;;;;;;4963659;28;20030;-84
2023/11/09 08:43:04;;;;;;;3.63;1.80;;;;;;;;;;4974107;28;20019;-82
2023/11/09 08:45:50;;;;;;;4.78;2.22;;;;;;;;;;4973953;28;20056;-83
2023/11/09 08:48:37;;;;;;;2.83;1.70;;;;;;;;;;4973953;28;20049;-84
2023/11/09 08:51:22;;;;;;;4.43;1.95;;;;;;;;;;4975085;28;20141;-84
2023/11/09 08:54:07;;;;;;;3.88;2.35;;;;;;;;;;4973865;28;20077;-84
2023/11/09 08:56:53;;;;;;;2.97;2.08;;;;;;;;;;4960489;28;20397;-84
2023/11/09 08:59:39;;;;;;;3.70;2.50;;;;;;;;;;4954267;28;20616;-84
2023/11/09 09:02:25;;;;;;;4.05;2.50;;;;;;;;;;4974665;28;20034;-84
2023/11/09 09:05:12;;;;;;;5.13;2.17;;;;;;;;;;4987335;28;20365;-82
2023/11/09 09:07:59;;;;;;;5.00;1.98;;;;;;;;;;4974049;28;20030;-84
2023/11/09 09:10:45;;;;;;;2.88;1.88;;;;;;;;;;4974687;28;20046;-83
2023/11/09 09:13:30;;;;;;;3.40;1.95;;;;;;;;;;4974672;28;20019;-84
2023/11/09 09:16:16;;;;;;;5.00;2.15;;;;;;;;;;4974886;28;20080;-84
2023/11/09 09:19:02;;;;;;;3.17;1.70;;;;;;;;;;4974298;28;20026;-83
2023/11/09 09:21:49;;;;;;;5.20;1.73;;;;;;;;;;4974227;28;20037;-82
2023/11/09 09:24:34;;;;;;;4.65;2.08;;;;;;;;;;4954030;28;20125;-83
2023/11/09 09:27:19;;;;;;;3.33;2.35;;;;;;;;;;4954786;28;20435;-83
2023/11/09 09:30:10;;;;;;;3.08;2.15;;;;;;;;;;4956971;28;20026;-83
2023/11/09 09:32:55;;;;;;;4.85;2.05;;;;;;;;;;4972521;28;20034;-83
2023/11/09 09:35:41;;;;;;;4.43;2.15;;;;;;;;;;4972058;28;20485;-83
2023/11/09 09:38:26;;;;;;;7.85;1.95;;;;;;;;;;4953239;28;20646;-85
2023/11/09 09:41:11;;;;;;;5.32;1.88;;;;;;;;;;4975090;28;20018;-83
2023/11/09 09:43:58;;;;;;;3.72;1.40;;;;;;;;;;4975465;28;20050;-84
2023/11/09 09:46:44;;;;;;;4.88;1.50;;;;;;;;;;4960169;28;20030;-83
2023/11/09 09:49:30;;;;;;;2.20;1.55;;;;;;;;;;4973925;28;20040;-83
2023/11/09 09:52:16;;;;;;;2.70;1.40;;;;;;;;;;4973021;28;20061;-83
2023/11/09 09:55:02;;;;;;;3.85;1.70;;;;;;;;;;4972867;28;20393;-84
2023/11/09 09:57:47;;;;;;;2.33;1.48;;;;;;;;;;4973693;28;20031;-83
2023/11/09 10:00:33;;;;;;;3.08;1.60;;;;;;;;;;4973601;28;20508;-84
2023/11/09 10:03:20;;;;;;;1.58;1.20;;;;;;;;;;4981881;28;20038;-82
2023/11/09 10:06:06;;;;;;;2.40;1.42;;;;;;;;;;4983603;28;20035;-84
2023/11/09 10:08:51;;;;;;;2.63;1.17;;;;;;;;;;4973952;28;20121;-82
2023/11/09 10:11:38;;;;;;;3.65;1.70;;;;;;;;;;4972349;28;20038;-84
2023/11/09 10:14:24;;;;;;;1.48;1.25;;;;;;;;;;4972242;28;20054;-84
2023/11/09 10:17:11;;;;;;;2.83;1.40;;;;;;;;;;4971609;28;20034;-84
2023/11/09 10:19:58;;;;;;;2.63;1.42;;;;;;;;;;4987720;28;20046;-84
2023/11/09 10:22:44;;;;;;;1.60;1.20;;;;;;;;;;4972598;28;20027;-85
2023/11/09 10:25:30;;;;;;;3.25;1.67;;;;;;;;;;4973218;28;20181;-83
2023/11/09 10:28:16;;;;;;;1.60;1.25;;;;;;;;;;4974774;28;20030;-84
2023/11/09 10:31:01;;;;;;;3.00;1.17;;;;;;;;;;4957771;28;20030;-83
2023/11/09 10:33:52;;;;;;;2.03;1.10;;;;;;;;;;4973286;28;20034;-85
2023/11/09 10:36:41;;;;;;;6.15;1.67;;;;;;;;;;4972993;28;20418;-85
2023/11/09 10:39:28;;;;;;;1.70;1.17;;;;;;;;;;4972851;28;20180;-85
2023/11/09 10:42:14;;;;;;;6.68;1.17;;;;;;;;;;4957659;28;20050;-85
2023/11/09 10:45:01;;;;;;;3.28;1.00;;;;;;;;;;4952259;28;20436;-85
2023/11/09 10:47:47;;;;;;;4.05;1.10;;;;;;;;;;4953059;28;20495;-84
2023/11/09 10:50:32;;;;;;;5.63;2.28;;;;;;;;;;4972078;28;20436;-83
2023/11/09 10:53:21;;;;;;;1.52;1.02;;;;;;;;;;4974453;28;20069;-82
2023/11/09 10:56:09;;;;;;;3.47;0.90;;;;;;;;;;4971677;28;20030;-82
2023/11/09 10:58:56;;;;;;;4.50;1.20;;;;;;;;;;4979263;28;20401;-84
2023/11/09 11:01:43;;;;;;;2.38;1.27;;;;;;;;;;4982341;28;20042;-83
2023/11/09 11:04:32;;;;;;;5.03;1.08;;;;;;;;;;4973080;28;20030;-83
2023/11/09 11:07:25;;;;;;;2.75;1.23;;;;;;;;;;4972144;28;20137;-85
2023/11/09 11:10:20;;;;;;;1.60;0.90;;;;;;;;;;4972345;28;20480;-83
2023/11/09 11:13:09;;;;;;;1.73;0.80;;;;;;;;;;4971767;28;20404;-82
2023/11/09 11:16:05;;;;;;;1.58;0.85;;;;;;;;;;4972255;28;20149;-85
2023/11/09 11:19:18;;;;;;;3.42;1.33;;;;;;;;;;4972649;28;20056;-82
2023/11/09 11:22:22;;;;;;;4.28;1.23;;;;;;;;;;4972029;28;20121;-82
2023/11/09 11:25:14;;;;;;;2.05;1.10;;;;;;;;;;4972625;28;20121;-82
2023/11/09 11:28:01;;;;;;;2.60;1.45;;;;;;;;;;4985795;28;20129;-83
2023/11/09 11:30:46;;;;;;;4.03;1.05;;;;;;;;;;4983805;28;20027;-83
2023/11/09 11:33:34;;;;;;;3.15;1.40;;;;;;;;;;4972738;28;20233;-84
2023/11/09 11:36:26;;;;;;;6.55;1.15;;;;;;;;;;4971875;28;20405;-82
2023/11/09 11:39:30;;;;;;;3.80;1.25;;;;;;;;;;4975970;28;20430;-82
2023/11/09 11:42:20;;;;;;;1.85;1.08;;;;;;;;;;4970528;28;20079;-83
2023/11/09 11:45:07;;;;;;;3.88;1.08;;;;;;;;;;4989082;28;20022;-82
2023/11/09 11:48:01;;;;;;;0.85;0.85;;;;;;;;;;4975471;28;20337;-83
2023/11/09 11:50:50;;;;;;;1.13;0.82;;;;;;;;;;4976776;28;20037;-83
2023/11/09 11:53:35;;;;;;;1.50;1.02;;;;;;;;;;4977223;28;20073;-82
2023/11/09 11:56:31;;;;;;;2.63;0.93;;;;;;;;;;4961016;28;20049;-83
2023/11/09 11:59:16;;;;;;;1.35;0.90;;;;;;;;;;4976240;28;20611;-83
2023/11/09 12:02:02;;;;;;;1.30;0.80;;;;;;;;;;4974866;28;20026;-83
2023/11/09 12:04:54;;;;;;;1.27;0.80;;;;;;;;;;4988615;28;20084;-82
2023/11/09 12:07:42;;;;;;;1.50;0.80;;;;;;;;;;4979731;28;20433;-81
2023/11/09 12:10:28;;;;;;;3.03;1.70;;;;;;;;;;4973968;28;20046;-81
2023/11/09 12:13:14;;;;;;;0.88;0.80;;;;;;;;;;4976586;28;20113;-83
2023/11/09 12:16:00;;;;;;;1.40;0.77;;;;;;;;;;4976441;28;20065;-83
2023/11/09 12:18:47;;;;;;;0.98;0.88;;;;;;;;;;4975554;28;20198;-82
2023/11/09 12:21:34;;;;;;;1.45;0.80;;;;;;;;;;4970281;28;20035;-84
2023/11/09 12:24:21;;;;;;;0.50;0.50;;;;;;;;;;4968682;28;20022;-84
2023/11/09 12:27:08;;;;;;;0.63;0.63;;;;;;;;;;4964168;28;20057;-83
2023/11/09 12:29:53;;;;;;;0.77;0.60;;;;;;;;;;4975481;28;20461;-82
2023/11/09 12:32:40;;;;;;;0.75;0.73;;;;;;;;;;4968572;28;20202;-85
2023/11/09 12:35:25;;;;;;;0.60;0.60;;;;;;;;;;4975976;28;20088;-86
2023/11/09 12:38:11;;;;;;;1.02;0.80;;;;;;;;;;4974340;28;20392;-83
2023/11/09 12:40:57;;;;;;;1.48;0.73;;;;;;;;;;4983634;28;20046;-83
2023/11/09 12:43:42;;;;;;;2.67;0.93;;;;;;;;;;4943056;28;20065;-85
2023/11/09 12:46:33;;;;;;;0.95;0.80;;;;;;;;;;4958007;28;20039;-85
2023/11/09 12:49:19;;;;;;;0.90;0.73;;;;;;;;;;4960740;28;20031;-86
2023/11/09 12:52:06;;;;;;;0.70;0.70;;;;;;;;;;4961674;28;20018;-86
2023/11/09 12:54:53;;;;;;;3.97;1.00;;;;;;;;;;4976491;28;20034;-84
2023/11/09 12:57:41;;;;;;;1.10;0.50;;;;;;;;;;4975490;28;20370;-85
2023/11/09 13:00:29;;;;;;;2.65;0.68;;;;;;;;;;4976422;28;20550;-85
2023/11/09 13:03:21;;;;;;;0.57;0.57;;;;;;;;;;4982869;28;20381;-86
2023/11/09 13:06:09;;;;;;;0.60;0.60;;;;;;;;;;5002937;28;20054;-87
2023/11/09 13:09:05;;;;;;;1.25;0.60;;;;;;;;;;4954808;28;20062;-86
2023/11/09 13:11:50;;;;;;;0.60;0.60;;;;;;;;;;4958008;28;20121;-84
2023/11/09 13:14:36;;;;;;;0.70;0.63;;;;;;;;;;4973448;28;20366;-85
2023/11/09 13:17:22;;;;;;;1.10;0.68;;;;;;;;;;4975191;28;20068;-85
2023/11/09 13:20:08;;;;;;;1.10;0.73;;;;;;;;;;4974312;28;20027;-83
2023/11/09 13:22:56;;;;;;;3.38;0.70;;;;;;;;;;4972981;28;20022;-83
2023/11/09 13:25:43;;;;;;;1.08;0.60;;;;;;;;;;4973541;28;20034;-83
2023/11/09 13:28:29;;;;;;;0.93;0.68;;;;;;;;;;4989773;28;20027;-80
2023/11/09 13:31:21;;;;;;;1.95;0.77;;;;;;;;;;4995168;28;20233;-85
2023/11/09 13:34:09;;;;;;;1.02;0.70;;;;;;;;;;4993485;28;20038;-85
2023/11/09 13:36:57;;;;;;;1.13;0.80;;;;;;;;;;4990601;28;20593;-85
2023/11/09 13:40:07;;;;;;;2.22;0.85;;;;;;;;;;4989329;28;20026;-85
2023/11/09 13:43:07;;;;;;;0.40;0.40;;;;;;;;;;4997132;28;20025;-86
2023/11/09 13:45:52;;;;;;;0.75;0.70;;;;;;;;;;4975892;28;20038;-85
2023/11/09 13:48:43;;;;;;;0.60;0.60;;;;;;;;;;4970647;28;20101;-85
2023/11/09 13:51:28;;;;;;;0.80;0.60;;;;;;;;;;4974294;28;20050;-86
2023/11/09 13:57:19;;;;;;;1.90;0.50;;;;;;;;;;4986832;28;20032;-86
2023/11/09 14:00:12;;;;;;;1.13;0.70;;;;;;;;;;4973646;28;20105;-85
2023/11/09 14:02:57;;;;;;;0.95;0.60;;;;;;;;;;4972728;28;20891;-84
2023/11/09 14:05:42;;;;;;;1.15;0.70;;;;;;;;;;4972048;28;20382;-83
2023/11/09 14:08:28;;;;;;;0.82;0.70;;;;;;;;;;4972397;28;20027;-86
2023/11/09 14:11:13;;;;;;;0.93;0.80;;;;;;;;;;4971590;28;20039;-83
2023/11/09 14:14:05;;;;;;;0.50;0.50;;;;;;;;;;4972970;28;20034;-84
2023/11/09 14:16:54;;;;;;;2.60;0.65;;;;;;;;;;4954223;28;20053;-86
2023/11/09 14:19:39;;;;;;;0.63;0.63;;;;;;;;;;4952721;28;20470;-84
2023/11/09 14:22:25;;;;;;;0.50;0.50;;;;;;;;;;4957531;28;20038;-84
2023/11/09 14:25:14;;;;;;;2.05;0.70;;;;;;;;;;4971805;28;20100;-83
2023/11/09 14:28:00;;;;;;;1.25;0.60;;;;;;;;;;4972559;28;20030;-83
2023/11/09 14:30:47;;;;;;;1.20;0.70;;;;;;;;;;4972632;28;20073;-83
2023/11/09 14:33:33;;;;;;;0.73;0.70;;;;;;;;;;4972005;28;20085;-83
2023/11/09 14:36:18;;;;;;;2.35;0.70;;;;;;;;;;4968295;28;20077;-83
2023/11/09 14:39:04;;;;;;;0.77;0.68;;;;;;;;;;4968862;28;20030;-83
2023/11/09 14:41:49;;;;;;;0.70;0.70;;;;;;;;;;4966932;28;20035;-83
2023/11/09 14:44:35;;;;;;;4.25;0.80;;;;;;;;;;4980650;28;20464;-82
2023/11/09 14:47:24;;;;;;;1.02;0.70;;;;;;;;;;4985406;28;20414;-81
2023/11/09 14:50:18;;;;;;;1.15;0.80;;;;;;;;;;4971792;28;20392;-81
2023/11/09 14:53:14;;;;;;;1.27;0.98;;;;;;;;;;4971134;28;20037;-81
2023/11/09 14:55:59;;;;;;;2.00;0.65;;;;;;;;;;4971732;28;20400;-81
2023/11/09 14:58:44;;;;;;;1.23;0.60;;;;;;;;;;4972594;28;20027;-83
2023/11/09 15:01:30;;;;;;;0.75;0.60;;;;;;;;;;4972054;28;20057;-82
2023/11/09 15:04:20;;;;;;;1.30;0.90;;;;;;;;;;4968805;28;20554;-83
2023/11/09 15:07:19;;;;;;;0.93;0.73;;;;;;;;;;4971563;28;20081;-82
2023/11/09 15:10:07;;;;;;;0.60;0.60;;;;;;;;;;4952141;28;20042;-82
2023/11/09 15:12:53;;;;;;;2.13;0.70;;;;;;;;;;4972347;28;20366;-82
2023/11/09 15:15:38;;;;;;;1.55;1.15;;;;;;;;;;4975516;28;20031;-81
2023/11/09 15:18:25;;;;;;;5.85;1.40;;;;;;;;;;4974988;28;20026;-83
2023/11/09 15:21:11;;;;;;;2.83;0.65;;;;;;;;;;4975077;28;20038;-84
2023/11/09 15:23:59;;;;;;;1.77;0.90;;;;;;;;;;4974862;28;20032;-83
2023/11/09 15:26:44;;;;;;;0.88;0.60;;;;;;;;;;4974552;28;20053;-83
2023/11/09 15:29:30;;;;;;;1.38;1.20;;;;;;;;;;4974887;28;20554;-82
2023/11/09 15:32:15;;;;;;;1.17;0.82;;;;;;;;;;4974875;28;20025;-84
2023/11/09 15:35:00;;;;;;;4.82;0.70;;;;;;;;;;4974955;28;20085;-83
2023/11/09 15:37:45;;;;;;;1.65;0.95;;;;;;;;;;4974291;28;20465;-82
2023/11/09 15:40:32;;;;;;;1.38;0.93;;;;;;;;;;4979380;28;20527;-83
2023/11/09 15:43:18;;;;;;;2.83;0.90;;;;;;;;;;4983826;28;20546;-84
2023/11/09 15:46:10;;;;;;;2.03;0.80;;;;;;;;;;4975118;28;20142;-83
2023/11/09 15:48:56;;;;;;;0.80;0.80;;;;;;;;;;4974365;28;20054;-83
2023/11/09 15:51:41;;;;;;;2.58;0.75;;;;;;;;;;4974692;28;20045;-82
2023/11/09 15:54:29;;;;;;;1.65;0.60;;;;;;;;;;4970527;28;20070;-82
2023/11/09 15:57:16;;;;;;;0.90;0.63;;;;;;;;;;4974471;28;20065;-82
2023/11/09 16:00:06;;;;;;;0.63;0.60;;;;;;;;;;4974638;28;20093;-82
2023/11/09 16:02:53;;;;;;;4.40;0.70;;;;;;;;;;4979355;28;20043;-83
2023/11/09 16:05:38;;;;;;;0.52;0.40;;;;;;;;;;4974564;28;20106;-82
2023/11/09 16:08:24;;;;;;;0.68;0.60;;;;;;;;;;4974118;28;20026;-81
2023/11/09 16:11:09;;;;;;;1.23;0.70;;;;;;;;;;4973379;28;20038;-83
2023/11/09 16:13:55;;;;;;;2.78;0.88;;;;;;;;;;4974460;28;20131;-83
2023/11/09 16:16:41;;;;;;;1.25;0.82;;;;;;;;;;4974276;28;20088;-84
2023/11/09 16:19:26;;;;;;;2.03;0.82;;;;;;;;;;4974273;28;20038;-84
2023/11/09 16:22:12;;;;;;;1.33;0.80;;;;;;;;;;4974658;28;20041;-83
2023/11/09 16:25:00;;;;;;;2.30;0.90;;;;;;;;;;4973664;28;20658;-82
2023/11/09 16:27:49;;;;;;;1.45;0.93;;;;;;;;;;4974204;28;20522;-82
2023/11/09 16:30:37;;;;;;;2.20;0.90;;;;;;;;;;4973428;28;20091;-83
2023/11/09 16:33:22;;;;;;;1.17;0.77;;;;;;;;;;4973386;28;20483;-83
2023/11/09 16:36:07;;;;;;;3.28;1.30;;;;;;;;;;4973819;28;20113;-84
2023/11/09 16:38:52;;;;;;;2.60;1.35;;;;;;;;;;4973595;28;20034;-82
2023/11/09 16:41:38;;;;;;;1.13;0.93;;;;;;;;;;4974500;28;20033;-83
2023/11/09 16:44:24;;;;;;;4.57;1.10;;;;;;;;;;4976526;28;20495;-82
2023/11/09 16:47:11;;;;;;;4.05;1.40;;;;;;;;;;4975195;28;20084;-83
2023/11/09 16:49:57;;;;;;;5.85;2.40;;;;;;;;;;4961487;28;20045;-82
2023/11/09 16:52:42;;;;;;;2.75;1.20;;;;;;;;;;4973064;28;20612;-83